sensor_id;sensor_type;location;lat;lon;timestamp;P1;durP1;ratioP1;P2;durP2;ratioP2
36653;SDS011;22650;49.350;20.898;2023-04-24T00:00:38;18.33;;;9.18;;
36653;SDS011;22650;49.350;20.898;2023-04-24T00:03:12;20.33;;;9.82;;
36653;SDS011;22650;49.350;20.898;2023-04-24T00:05:46;24.23;;;10.05;;
36653;SDS011;22650;49.350;20.898;2023-04-24T00:08:21;20.77;;;9.43;;
36653;SDS011;22650;49.350;20.898;2023-04-24T00:10:55;15.07;;;8.15;;
36653;SDS011;22650;49.350;20.898;2023-04-24T00:13:28;17.58;;;8.63;;
36653;SDS011;22650;49.350;20.898;2023-04-24T00:16:02;16.50;;;9.15;;
36653;SDS011;22650;49.350;20.898;2023-04-24T00:18:36;18.35;;;9.18;;
36653;SDS011;22650;49.350;20.898;2023-04-24T00:21:10;20.85;;;8.75;;
36653;SDS011;22650;49.350;20.898;2023-04-24T00:23:45;21.48;;;8.32;;
36653;SDS011;22650;49.350;20.898;2023-04-24T00:26:19;15.10;;;8.68;;
36653;SDS011;22650;49.350;20.898;2023-04-24T00:28:52;18.75;;;9.52;;
36653;SDS011;22650;49.350;20.898;2023-04-24T00:31:26;21.45;;;8.88;;
36653;SDS011;22650;49.350;20.898;2023-04-24T00:33:59;15.68;;;8.00;;
36653;SDS011;22650;49.350;20.898;2023-04-24T00:36:33;16.75;;;7.75;;
36653;SDS011;22650;49.350;20.898;2023-04-24T00:39:08;16.33;;;7.68;;
36653;SDS011;22650;49.350;20.898;2023-04-24T00:41:42;16.83;;;7.93;;
36653;SDS011;22650;49.350;20.898;2023-04-24T00:44:16;15.23;;;7.82;;
36653;SDS011;22650;49.350;20.898;2023-04-24T00:46:50;17.45;;;8.65;;
36653;SDS011;22650;49.350;20.898;2023-04-24T00:49:26;17.38;;;9.00;;
36653;SDS011;22650;49.350;20.898;2023-04-24T00:51:59;15.25;;;8.45;;
36653;SDS011;22650;49.350;20.898;2023-04-24T00:54:35;13.90;;;7.70;;
36653;SDS011;22650;49.350;20.898;2023-04-24T00:57:09;17.20;;;7.38;;
36653;SDS011;22650;49.350;20.898;2023-04-24T00:59:42;18.17;;;9.65;;
36653;SDS011;22650;49.350;20.898;2023-04-24T01:02:16;17.40;;;9.40;;
36653;SDS011;22650;49.350;20.898;2023-04-24T01:04:51;13.63;;;8.02;;
36653;SDS011;22650;49.350;20.898;2023-04-24T01:07:25;16.75;;;7.63;;
36653;SDS011;22650;49.350;20.898;2023-04-24T01:10:00;14.23;;;8.20;;
36653;SDS011;22650;49.350;20.898;2023-04-24T01:12:34;17.55;;;7.80;;
36653;SDS011;22650;49.350;20.898;2023-04-24T01:15:08;20.98;;;9.07;;
36653;SDS011;22650;49.350;20.898;2023-04-24T01:17:42;15.98;;;8.07;;
36653;SDS011;22650;49.350;20.898;2023-04-24T01:20:18;17.95;;;7.78;;
36653;SDS011;22650;49.350;20.898;2023-04-24T01:22:54;15.20;;;7.93;;
36653;SDS011;22650;49.350;20.898;2023-04-24T01:25:28;18.02;;;8.20;;
36653;SDS011;22650;49.350;20.898;2023-04-24T01:28:02;16.13;;;8.20;;
36653;SDS011;22650;49.350;20.898;2023-04-24T01:30:35;14.55;;;8.00;;
36653;SDS011;22650;49.350;20.898;2023-04-24T01:33:09;16.27;;;8.43;;
36653;SDS011;22650;49.350;20.898;2023-04-24T01:35:43;17.15;;;7.75;;
36653;SDS011;22650;49.350;20.898;2023-04-24T01:38:18;15.50;;;7.38;;
36653;SDS011;22650;49.350;20.898;2023-04-24T01:40:51;14.55;;;8.13;;
36653;SDS011;22650;49.350;20.898;2023-04-24T01:43:26;14.55;;;8.13;;
36653;SDS011;22650;49.350;20.898;2023-04-24T01:46:02;13.98;;;7.93;;
36653;SDS011;22650;49.350;20.898;2023-04-24T01:48:39;15.77;;;7.97;;
36653;SDS011;22650;49.350;20.898;2023-04-24T01:51:14;17.25;;;7.72;;
36653;SDS011;22650;49.350;20.898;2023-04-24T01:53:48;17.52;;;7.95;;
36653;SDS011;22650;49.350;20.898;2023-04-24T01:56:22;16.67;;;8.75;;
36653;SDS011;22650;49.350;20.898;2023-04-24T01:58:56;14.25;;;8.27;;
36653;SDS011;22650;49.350;20.898;2023-04-24T02:01:32;14.90;;;8.25;;
36653;SDS011;22650;49.350;20.898;2023-04-24T02:04:07;14.27;;;6.90;;
36653;SDS011;22650;49.350;20.898;2023-04-24T02:06:40;15.40;;;7.70;;
36653;SDS011;22650;49.350;20.898;2023-04-24T02:09:15;17.27;;;7.68;;
36653;SDS011;22650;49.350;20.898;2023-04-24T02:11:49;12.82;;;7.85;;
36653;SDS011;22650;49.350;20.898;2023-04-24T02:14:22;14.70;;;7.80;;
36653;SDS011;22650;49.350;20.898;2023-04-24T02:16:56;15.52;;;7.60;;
36653;SDS011;22650;49.350;20.898;2023-04-24T02:19:30;15.20;;;7.00;;
36653;SDS011;22650;49.350;20.898;2023-04-24T02:22:03;16.38;;;7.70;;
36653;SDS011;22650;49.350;20.898;2023-04-24T02:24:39;14.07;;;6.43;;
36653;SDS011;22650;49.350;20.898;2023-04-24T02:27:13;18.40;;;6.75;;
36653;SDS011;22650;49.350;20.898;2023-04-24T02:29:47;13.73;;;7.85;;
36653;SDS011;22650;49.350;20.898;2023-04-24T02:32:21;15.35;;;8.18;;
36653;SDS011;22650;49.350;20.898;2023-04-24T02:34:54;14.90;;;7.45;;
36653;SDS011;22650;49.350;20.898;2023-04-24T02:37:27;16.45;;;7.57;;
36653;SDS011;22650;49.350;20.898;2023-04-24T02:40:03;18.88;;;7.80;;
36653;SDS011;22650;49.350;20.898;2023-04-24T02:42:37;23.20;;;7.07;;
36653;SDS011;22650;49.350;20.898;2023-04-24T02:45:11;15.73;;;7.25;;
36653;SDS011;22650;49.350;20.898;2023-04-24T02:47:44;10.85;;;6.63;;
36653;SDS011;22650;49.350;20.898;2023-04-24T02:50:18;18.00;;;7.57;;
36653;SDS011;22650;49.350;20.898;2023-04-24T02:52:51;14.07;;;6.95;;
36653;SDS011;22650;49.350;20.898;2023-04-24T02:55:26;11.48;;;5.82;;
36653;SDS011;22650;49.350;20.898;2023-04-24T02:58:00;16.20;;;7.88;;
36653;SDS011;22650;49.350;20.898;2023-04-24T03:00:33;20.48;;;9.18;;
36653;SDS011;22650;49.350;20.898;2023-04-24T03:03:07;11.85;;;6.45;;
36653;SDS011;22650;49.350;20.898;2023-04-24T03:05:41;14.05;;;7.63;;
36653;SDS011;22650;49.350;20.898;2023-04-24T03:08:14;17.05;;;7.25;;
36653;SDS011;22650;49.350;20.898;2023-04-24T03:10:49;13.55;;;7.65;;
36653;SDS011;22650;49.350;20.898;2023-04-24T03:13:23;12.68;;;7.43;;
36653;SDS011;22650;49.350;20.898;2023-04-24T03:15:56;14.93;;;8.20;;
36653;SDS011;22650;49.350;20.898;2023-04-24T03:18:31;14.85;;;8.30;;
36653;SDS011;22650;49.350;20.898;2023-04-24T03:21:05;16.00;;;7.90;;
36653;SDS011;22650;49.350;20.898;2023-04-24T03:23:39;14.38;;;7.68;;
36653;SDS011;22650;49.350;20.898;2023-04-24T03:26:15;18.38;;;7.85;;
36653;SDS011;22650;49.350;20.898;2023-04-24T03:29:02;15.18;;;7.55;;
36653;SDS011;22650;49.350;20.898;2023-04-24T03:31:35;16.08;;;7.28;;
36653;SDS011;22650;49.350;20.898;2023-04-24T03:34:09;17.17;;;6.95;;
36653;SDS011;22650;49.350;20.898;2023-04-24T03:36:43;21.48;;;8.60;;
36653;SDS011;22650;49.350;20.898;2023-04-24T03:39:19;17.75;;;7.57;;
36653;SDS011;22650;49.350;20.898;2023-04-24T03:41:59;15.32;;;6.95;;
36653;SDS011;22650;49.350;20.898;2023-04-24T03:44:44;14.82;;;7.32;;
36653;SDS011;22650;49.350;20.898;2023-04-24T03:47:17;17.17;;;7.75;;
36653;SDS011;22650;49.350;20.898;2023-04-24T03:49:52;12.95;;;7.05;;
36653;SDS011;22650;49.350;20.898;2023-04-24T03:52:27;14.13;;;7.75;;
36653;SDS011;22650;49.350;20.898;2023-04-24T03:55:01;14.60;;;8.00;;
36653;SDS011;22650;49.350;20.898;2023-04-24T03:57:41;15.35;;;7.90;;
36653;SDS011;22650;49.350;20.898;2023-04-24T04:00:23;16.65;;;7.60;;
36653;SDS011;22650;49.350;20.898;2023-04-24T04:03:15;18.83;;;7.93;;
36653;SDS011;22650;49.350;20.898;2023-04-24T04:05:49;14.30;;;7.93;;
36653;SDS011;22650;49.350;20.898;2023-04-24T04:08:22;14.95;;;7.95;;
36653;SDS011;22650;49.350;20.898;2023-04-24T04:10:56;15.05;;;7.18;;
36653;SDS011;22650;49.350;20.898;2023-04-24T04:13:31;15.55;;;8.48;;
36653;SDS011;22650;49.350;20.898;2023-04-24T04:16:05;19.17;;;8.10;;
36653;SDS011;22650;49.350;20.898;2023-04-24T04:18:39;18.95;;;9.65;;
36653;SDS011;22650;49.350;20.898;2023-04-24T04:21:12;22.52;;;9.30;;
36653;SDS011;22650;49.350;20.898;2023-04-24T04:23:46;15.00;;;8.45;;
36653;SDS011;22650;49.350;20.898;2023-04-24T04:29:09;16.17;;;8.25;;
36653;SDS011;22650;49.350;20.898;2023-04-24T04:31:47;17.88;;;8.38;;
36653;SDS011;22650;49.350;20.898;2023-04-24T04:34:20;17.58;;;9.43;;
36653;SDS011;22650;49.350;20.898;2023-04-24T04:36:55;16.33;;;7.93;;
36653;SDS011;22650;49.350;20.898;2023-04-24T04:39:41;22.08;;;9.75;;
36653;SDS011;22650;49.350;20.898;2023-04-24T04:42:24;20.38;;;9.88;;
36653;SDS011;22650;49.350;20.898;2023-04-24T04:45:00;17.30;;;9.10;;
36653;SDS011;22650;49.350;20.898;2023-04-24T04:47:44;17.67;;;9.02;;
36653;SDS011;22650;49.350;20.898;2023-04-24T04:50:18;22.42;;;9.52;;
36653;SDS011;22650;49.350;20.898;2023-04-24T04:52:55;18.83;;;10.18;;
36653;SDS011;22650;49.350;20.898;2023-04-24T04:55:35;18.98;;;9.60;;
36653;SDS011;22650;49.350;20.898;2023-04-24T04:58:18;24.35;;;11.40;;
36653;SDS011;22650;49.350;20.898;2023-04-24T05:00:57;21.30;;;11.25;;
36653;SDS011;22650;49.350;20.898;2023-04-24T05:03:35;23.85;;;11.73;;
36653;SDS011;22650;49.350;20.898;2023-04-24T05:06:13;27.42;;;13.48;;
36653;SDS011;22650;49.350;20.898;2023-04-24T05:08:47;25.27;;;12.90;;
36653;SDS011;22650;49.350;20.898;2023-04-24T05:11:33;19.77;;;10.88;;
36653;SDS011;22650;49.350;20.898;2023-04-24T05:14:07;24.15;;;12.32;;
36653;SDS011;22650;49.350;20.898;2023-04-24T05:16:44;19.65;;;9.73;;
36653;SDS011;22650;49.350;20.898;2023-04-24T05:19:20;18.05;;;8.93;;
36653;SDS011;22650;49.350;20.898;2023-04-24T05:21:54;21.20;;;10.10;;
36653;SDS011;22650;49.350;20.898;2023-04-24T05:24:28;19.98;;;8.52;;
36653;SDS011;22650;49.350;20.898;2023-04-24T05:27:20;15.85;;;8.65;;
36653;SDS011;22650;49.350;20.898;2023-04-24T05:29:54;17.45;;;9.48;;
36653;SDS011;22650;49.350;20.898;2023-04-24T05:32:29;17.20;;;8.68;;
36653;SDS011;22650;49.350;20.898;2023-04-24T05:35:03;16.15;;;8.55;;
36653;SDS011;22650;49.350;20.898;2023-04-24T05:37:38;15.45;;;8.57;;
36653;SDS011;22650;49.350;20.898;2023-04-24T05:40:12;11.70;;;7.00;;
36653;SDS011;22650;49.350;20.898;2023-04-24T05:42:46;12.02;;;7.43;;
36653;SDS011;22650;49.350;20.898;2023-04-24T05:45:20;14.27;;;8.18;;
36653;SDS011;22650;49.350;20.898;2023-04-24T05:47:54;15.10;;;6.72;;
36653;SDS011;22650;49.350;20.898;2023-04-24T05:50:28;12.93;;;7.22;;
36653;SDS011;22650;49.350;20.898;2023-04-24T05:53:02;11.60;;;6.10;;
36653;SDS011;22650;49.350;20.898;2023-04-24T05:55:38;15.43;;;8.00;;
36653;SDS011;22650;49.350;20.898;2023-04-24T05:58:12;19.17;;;10.82;;
36653;SDS011;22650;49.350;20.898;2023-04-24T06:00:46;20.70;;;9.68;;
36653;SDS011;22650;49.350;20.898;2023-04-24T06:03:21;44.25;;;20.23;;
36653;SDS011;22650;49.350;20.898;2023-04-24T06:05:55;61.33;;;23.75;;
36653;SDS011;22650;49.350;20.898;2023-04-24T06:08:29;50.33;;;20.40;;
36653;SDS011;22650;49.350;20.898;2023-04-24T06:11:02;45.85;;;18.40;;
36653;SDS011;22650;49.350;20.898;2023-04-24T06:13:36;18.45;;;7.72;;
36653;SDS011;22650;49.350;20.898;2023-04-24T06:16:29;18.67;;;9.67;;
36653;SDS011;22650;49.350;20.898;2023-04-24T06:19:11;12.10;;;6.68;;
36653;SDS011;22650;49.350;20.898;2023-04-24T06:21:45;11.40;;;6.40;;
36653;SDS011;22650;49.350;20.898;2023-04-24T06:24:18;12.93;;;6.78;;
36653;SDS011;22650;49.350;20.898;2023-04-24T06:26:52;8.55;;;4.85;;
36653;SDS011;22650;49.350;20.898;2023-04-24T06:29:25;9.18;;;5.05;;
36653;SDS011;22650;49.350;20.898;2023-04-24T06:31:59;12.50;;;6.03;;
36653;SDS011;22650;49.350;20.898;2023-04-24T06:34:34;15.90;;;6.10;;
36653;SDS011;22650;49.350;20.898;2023-04-24T06:37:08;11.45;;;6.60;;
36653;SDS011;22650;49.350;20.898;2023-04-24T06:39:42;11.25;;;6.80;;
36653;SDS011;22650;49.350;20.898;2023-04-24T06:42:15;11.05;;;6.28;;
36653;SDS011;22650;49.350;20.898;2023-04-24T06:44:49;9.60;;;4.80;;
36653;SDS011;22650;49.350;20.898;2023-04-24T06:47:22;8.98;;;4.13;;
36653;SDS011;22650;49.350;20.898;2023-04-24T06:49:57;10.25;;;4.80;;
36653;SDS011;22650;49.350;20.898;2023-04-24T06:52:31;7.97;;;4.20;;
36653;SDS011;22650;49.350;20.898;2023-04-24T06:55:05;10.18;;;4.13;;
36653;SDS011;22650;49.350;20.898;2023-04-24T06:57:40;5.97;;;3.67;;
36653;SDS011;22650;49.350;20.898;2023-04-24T07:00:13;5.68;;;3.67;;
36653;SDS011;22650;49.350;20.898;2023-04-24T07:02:47;8.60;;;4.10;;
36653;SDS011;22650;49.350;20.898;2023-04-24T07:05:22;9.55;;;3.28;;
36653;SDS011;22650;49.350;20.898;2023-04-24T07:07:56;5.40;;;3.00;;
36653;SDS011;22650;49.350;20.898;2023-04-24T07:10:30;5.53;;;3.20;;
36653;SDS011;22650;49.350;20.898;2023-04-24T07:13:05;7.07;;;2.95;;
36653;SDS011;22650;49.350;20.898;2023-04-24T07:15:40;9.63;;;3.58;;
36653;SDS011;22650;49.350;20.898;2023-04-24T07:18:13;4.13;;;2.67;;
36653;SDS011;22650;49.350;20.898;2023-04-24T07:20:48;6.40;;;2.47;;
36653;SDS011;22650;49.350;20.898;2023-04-24T07:23:22;6.13;;;3.13;;
36653;SDS011;22650;49.350;20.898;2023-04-24T07:25:56;3.90;;;2.63;;
36653;SDS011;22650;49.350;20.898;2023-04-24T07:28:30;4.80;;;2.70;;
36653;SDS011;22650;49.350;20.898;2023-04-24T07:31:03;6.68;;;2.88;;
36653;SDS011;22650;49.350;20.898;2023-04-24T07:33:37;4.32;;;2.80;;
36653;SDS011;22650;49.350;20.898;2023-04-24T07:36:12;7.68;;;3.47;;
36653;SDS011;22650;49.350;20.898;2023-04-24T07:38:48;6.18;;;3.05;;
36653;SDS011;22650;49.350;20.898;2023-04-24T07:41:22;10.43;;;3.85;;
36653;SDS011;22650;49.350;20.898;2023-04-24T07:43:56;3.83;;;2.47;;
36653;SDS011;22650;49.350;20.898;2023-04-24T07:46:30;4.72;;;2.67;;
36653;SDS011;22650;49.350;20.898;2023-04-24T07:49:03;4.13;;;2.80;;
36653;SDS011;22650;49.350;20.898;2023-04-24T07:51:45;5.93;;;2.80;;
36653;SDS011;22650;49.350;20.898;2023-04-24T07:54:20;8.63;;;2.63;;
36653;SDS011;22650;49.350;20.898;2023-04-24T07:56:53;4.28;;;2.17;;
36653;SDS011;22650;49.350;20.898;2023-04-24T07:59:27;3.92;;;2.70;;
36653;SDS011;22650;49.350;20.898;2023-04-24T08:02:01;7.47;;;2.85;;
36653;SDS011;22650;49.350;20.898;2023-04-24T08:04:34;9.45;;;2.70;;
36653;SDS011;22650;49.350;20.898;2023-04-24T08:07:10;5.45;;;2.53;;
36653;SDS011;22650;49.350;20.898;2023-04-24T08:09:44;4.40;;;2.70;;
36653;SDS011;22650;49.350;20.898;2023-04-24T08:12:18;4.85;;;2.60;;
36653;SDS011;22650;49.350;20.898;2023-04-24T08:14:51;5.43;;;3.03;;
36653;SDS011;22650;49.350;20.898;2023-04-24T08:17:25;4.82;;;2.90;;
36653;SDS011;22650;49.350;20.898;2023-04-24T08:19:58;11.23;;;2.80;;
36653;SDS011;22650;49.350;20.898;2023-04-24T08:22:36;4.95;;;3.13;;
36653;SDS011;22650;49.350;20.898;2023-04-24T08:25:09;7.32;;;3.22;;
36653;SDS011;22650;49.350;20.898;2023-04-24T08:27:43;5.25;;;2.80;;
36653;SDS011;22650;49.350;20.898;2023-04-24T08:30:17;5.25;;;3.05;;
36653;SDS011;22650;49.350;20.898;2023-04-24T08:32:52;5.72;;;2.90;;
36653;SDS011;22650;49.350;20.898;2023-04-24T08:35:25;5.32;;;2.95;;
36653;SDS011;22650;49.350;20.898;2023-04-24T08:38:00;4.10;;;3.05;;
36653;SDS011;22650;49.350;20.898;2023-04-24T08:40:34;4.57;;;2.45;;
36653;SDS011;22650;49.350;20.898;2023-04-24T08:43:09;4.63;;;2.63;;
36653;SDS011;22650;49.350;20.898;2023-04-24T08:45:44;5.13;;;2.97;;
36653;SDS011;22650;49.350;20.898;2023-04-24T08:48:18;3.50;;;2.72;;
36653;SDS011;22650;49.350;20.898;2023-04-24T08:51:02;5.07;;;3.00;;
36653;SDS011;22650;49.350;20.898;2023-04-24T08:53:41;4.70;;;3.10;;
36653;SDS011;22650;49.350;20.898;2023-04-24T08:56:15;3.83;;;2.78;;
36653;SDS011;22650;49.350;20.898;2023-04-24T08:58:50;4.82;;;2.97;;
36653;SDS011;22650;49.350;20.898;2023-04-24T09:01:24;8.93;;;3.30;;
36653;SDS011;22650;49.350;20.898;2023-04-24T09:04:00;6.93;;;3.35;;
36653;SDS011;22650;49.350;20.898;2023-04-24T09:06:36;5.65;;;3.28;;
36653;SDS011;22650;49.350;20.898;2023-04-24T09:09:11;6.75;;;2.92;;
36653;SDS011;22650;49.350;20.898;2023-04-24T09:11:45;5.32;;;2.70;;
36653;SDS011;22650;49.350;20.898;2023-04-24T09:14:19;6.13;;;2.60;;
36653;SDS011;22650;49.350;20.898;2023-04-24T09:16:54;5.30;;;2.60;;
36653;SDS011;22650;49.350;20.898;2023-04-24T09:19:28;3.20;;;2.90;;
36653;SDS011;22650;49.350;20.898;2023-04-24T09:22:04;9.15;;;3.05;;
36653;SDS011;22650;49.350;20.898;2023-04-24T09:24:40;4.80;;;2.28;;
36653;SDS011;22650;49.350;20.898;2023-04-24T09:27:14;7.20;;;3.00;;
36653;SDS011;22650;49.350;20.898;2023-04-24T09:29:55;4.13;;;3.20;;
36653;SDS011;22650;49.350;20.898;2023-04-24T09:32:29;8.10;;;2.92;;
36653;SDS011;22650;49.350;20.898;2023-04-24T09:35:07;4.53;;;2.65;;
36653;SDS011;22650;49.350;20.898;2023-04-24T09:37:42;5.28;;;3.13;;
36653;SDS011;22650;49.350;20.898;2023-04-24T09:40:19;6.35;;;3.05;;
36653;SDS011;22650;49.350;20.898;2023-04-24T09:42:55;4.35;;;2.88;;
36653;SDS011;22650;49.350;20.898;2023-04-24T09:45:35;7.13;;;3.08;;
36653;SDS011;22650;49.350;20.898;2023-04-24T09:48:09;4.78;;;3.20;;
36653;SDS011;22650;49.350;20.898;2023-04-24T09:50:45;5.22;;;3.25;;
36653;SDS011;22650;49.350;20.898;2023-04-24T09:53:21;5.63;;;2.92;;
36653;SDS011;22650;49.350;20.898;2023-04-24T09:56:03;5.35;;;3.70;;
36653;SDS011;22650;49.350;20.898;2023-04-24T09:58:41;6.18;;;3.60;;
36653;SDS011;22650;49.350;20.898;2023-04-24T10:01:14;5.43;;;2.97;;
36653;SDS011;22650;49.350;20.898;2023-04-24T10:03:48;7.38;;;3.28;;
36653;SDS011;22650;49.350;20.898;2023-04-24T10:06:21;5.20;;;3.20;;
36653;SDS011;22650;49.350;20.898;2023-04-24T10:08:55;7.13;;;2.90;;
36653;SDS011;22650;49.350;20.898;2023-04-24T10:11:31;6.60;;;2.25;;
36653;SDS011;22650;49.350;20.898;2023-04-24T10:14:04;6.35;;;2.42;;
36653;SDS011;22650;49.350;20.898;2023-04-24T10:16:39;5.25;;;2.80;;
36653;SDS011;22650;49.350;20.898;2023-04-24T10:19:13;2.92;;;2.40;;
36653;SDS011;22650;49.350;20.898;2023-04-24T10:21:47;9.90;;;3.53;;
36653;SDS011;22650;49.350;20.898;2023-04-24T10:24:22;4.15;;;2.97;;
36653;SDS011;22650;49.350;20.898;2023-04-24T10:26:57;6.20;;;2.75;;
36653;SDS011;22650;49.350;20.898;2023-04-24T10:29:32;5.75;;;3.42;;
36653;SDS011;22650;49.350;20.898;2023-04-24T10:32:08;3.97;;;2.95;;
36653;SDS011;22650;49.350;20.898;2023-04-24T10:34:43;7.22;;;3.03;;
36653;SDS011;22650;49.350;20.898;2023-04-24T10:37:16;6.20;;;3.33;;
36653;SDS011;22650;49.350;20.898;2023-04-24T10:39:50;6.00;;;3.30;;
36653;SDS011;22650;49.350;20.898;2023-04-24T10:42:28;10.82;;;3.55;;
36653;SDS011;22650;49.350;20.898;2023-04-24T10:45:04;8.70;;;3.42;;
36653;SDS011;22650;49.350;20.898;2023-04-24T10:47:41;6.35;;;3.35;;
36653;SDS011;22650;49.350;20.898;2023-04-24T10:50:15;20.05;;;4.03;;
36653;SDS011;22650;49.350;20.898;2023-04-24T10:52:49;7.68;;;3.25;;
36653;SDS011;22650;49.350;20.898;2023-04-24T10:55:40;4.53;;;2.50;;
36653;SDS011;22650;49.350;20.898;2023-04-24T10:58:16;8.07;;;3.33;;
36653;SDS011;22650;49.350;20.898;2023-04-24T11:00:55;7.50;;;2.80;;
36653;SDS011;22650;49.350;20.898;2023-04-24T11:03:30;5.85;;;3.50;;
36653;SDS011;22650;49.350;20.898;2023-04-24T11:06:06;8.32;;;3.53;;
36653;SDS011;22650;49.350;20.898;2023-04-24T11:08:42;7.18;;;3.75;;
36653;SDS011;22650;49.350;20.898;2023-04-24T11:11:17;10.43;;;4.03;;
36653;SDS011;22650;49.350;20.898;2023-04-24T11:14:06;10.25;;;3.90;;
36653;SDS011;22650;49.350;20.898;2023-04-24T11:16:44;9.18;;;3.72;;
36653;SDS011;22650;49.350;20.898;2023-04-24T11:19:20;5.78;;;3.08;;
36653;SDS011;22650;49.350;20.898;2023-04-24T11:21:57;7.95;;;3.65;;
36653;SDS011;22650;49.350;20.898;2023-04-24T11:24:38;5.18;;;3.47;;
36653;SDS011;22650;49.350;20.898;2023-04-24T11:27:21;5.78;;;3.50;;
36653;SDS011;22650;49.350;20.898;2023-04-24T11:30:00;5.90;;;2.90;;
36653;SDS011;22650;49.350;20.898;2023-04-24T11:32:38;4.10;;;2.67;;
36653;SDS011;22650;49.350;20.898;2023-04-24T11:35:14;3.88;;;2.95;;
36653;SDS011;22650;49.350;20.898;2023-04-24T11:37:49;6.05;;;2.92;;
36653;SDS011;22650;49.350;20.898;2023-04-24T11:40:44;5.90;;;2.80;;
36653;SDS011;22650;49.350;20.898;2023-04-24T11:43:19;5.15;;;2.83;;
36653;SDS011;22650;49.350;20.898;2023-04-24T11:45:55;11.85;;;3.40;;
36653;SDS011;22650;49.350;20.898;2023-04-24T11:48:36;7.28;;;2.47;;
36653;SDS011;22650;49.350;20.898;2023-04-24T11:51:11;4.55;;;2.70;;
36653;SDS011;22650;49.350;20.898;2023-04-24T11:53:45;5.78;;;2.38;;
36653;SDS011;22650;49.350;20.898;2023-04-24T11:56:22;3.65;;;2.60;;
36653;SDS011;22650;49.350;20.898;2023-04-24T11:58:56;2.85;;;2.20;;
36653;SDS011;22650;49.350;20.898;2023-04-24T12:01:31;7.53;;;2.22;;
36653;SDS011;22650;49.350;20.898;2023-04-24T12:04:17;9.57;;;3.10;;
36653;SDS011;22650;49.350;20.898;2023-04-24T12:07:00;6.00;;;3.10;;
36653;SDS011;22650;49.350;20.898;2023-04-24T12:09:41;3.88;;;2.40;;
36653;SDS011;22650;49.350;20.898;2023-04-24T12:12:18;7.35;;;3.35;;
36653;SDS011;22650;49.350;20.898;2023-04-24T12:14:53;5.85;;;2.75;;
36653;SDS011;22650;49.350;20.898;2023-04-24T12:17:29;7.15;;;2.90;;
36653;SDS011;22650;49.350;20.898;2023-04-24T12:20:04;3.85;;;2.70;;
36653;SDS011;22650;49.350;20.898;2023-04-24T12:22:44;5.57;;;3.53;;
36653;SDS011;22650;49.350;20.898;2023-04-24T12:25:19;4.00;;;2.80;;
36653;SDS011;22650;49.350;20.898;2023-04-24T12:27:54;6.38;;;4.45;;
36653;SDS011;22650;49.350;20.898;2023-04-24T12:30:42;6.00;;;2.33;;
36653;SDS011;22650;49.350;20.898;2023-04-24T12:33:18;6.95;;;3.50;;
36653;SDS011;22650;49.350;20.898;2023-04-24T12:35:53;3.47;;;2.75;;
36653;SDS011;22650;49.350;20.898;2023-04-24T12:38:27;3.97;;;2.25;;
36653;SDS011;22650;49.350;20.898;2023-04-24T12:41:02;5.97;;;2.97;;
36653;SDS011;22650;49.350;20.898;2023-04-24T12:43:37;8.18;;;2.72;;
36653;SDS011;22650;49.350;20.898;2023-04-24T12:46:11;7.57;;;4.13;;
36653;SDS011;22650;49.350;20.898;2023-04-24T12:48:50;5.20;;;2.53;;
36653;SDS011;22650;49.350;20.898;2023-04-24T12:51:23;10.75;;;3.03;;
36653;SDS011;22650;49.350;20.898;2023-04-24T12:53:57;10.57;;;2.85;;
36653;SDS011;22650;49.350;20.898;2023-04-24T12:56:30;5.32;;;3.85;;
36653;SDS011;22650;49.350;20.898;2023-04-24T12:59:04;5.00;;;2.90;;
36653;SDS011;22650;49.350;20.898;2023-04-24T13:01:38;6.03;;;3.15;;
36653;SDS011;22650;49.350;20.898;2023-04-24T13:04:13;11.10;;;6.03;;
36653;SDS011;22650;49.350;20.898;2023-04-24T13:06:47;27.15;;;10.40;;
36653;SDS011;22650;49.350;20.898;2023-04-24T13:09:21;5.78;;;3.53;;
36653;SDS011;22650;49.350;20.898;2023-04-24T13:11:55;7.22;;;3.55;;
36653;SDS011;22650;49.350;20.898;2023-04-24T13:14:29;5.93;;;3.22;;
36653;SDS011;22650;49.350;20.898;2023-04-24T13:17:03;4.28;;;2.85;;
36653;SDS011;22650;49.350;20.898;2023-04-24T13:19:38;4.93;;;2.70;;
36653;SDS011;22650;49.350;20.898;2023-04-24T13:22:12;8.38;;;3.40;;
36653;SDS011;22650;49.350;20.898;2023-04-24T13:24:46;6.57;;;3.60;;
36653;SDS011;22650;49.350;20.898;2023-04-24T13:27:20;4.00;;;3.08;;
36653;SDS011;22650;49.350;20.898;2023-04-24T13:29:54;5.18;;;3.10;;
36653;SDS011;22650;49.350;20.898;2023-04-24T13:32:28;8.20;;;3.13;;
36653;SDS011;22650;49.350;20.898;2023-04-24T13:35:03;4.45;;;3.20;;
36653;SDS011;22650;49.350;20.898;2023-04-24T13:37:37;5.18;;;3.50;;
36653;SDS011;22650;49.350;20.898;2023-04-24T13:40:11;6.72;;;3.15;;
36653;SDS011;22650;49.350;20.898;2023-04-24T13:42:44;8.05;;;3.33;;
36653;SDS011;22650;49.350;20.898;2023-04-24T13:45:18;5.50;;;3.50;;
36653;SDS011;22650;49.350;20.898;2023-04-24T13:47:56;7.47;;;3.85;;
36653;SDS011;22650;49.350;20.898;2023-04-24T13:50:31;27.02;;;3.75;;
36653;SDS011;22650;49.350;20.898;2023-04-24T13:53:04;6.82;;;3.30;;
36653;SDS011;22650;49.350;20.898;2023-04-24T13:55:38;5.72;;;3.17;;
36653;SDS011;22650;49.350;20.898;2023-04-24T13:58:12;8.38;;;3.50;;
36653;SDS011;22650;49.350;20.898;2023-04-24T14:00:45;4.72;;;3.13;;
36653;SDS011;22650;49.350;20.898;2023-04-24T14:03:19;8.98;;;3.60;;
36653;SDS011;22650;49.350;20.898;2023-04-24T14:05:54;6.07;;;3.40;;
36653;SDS011;22650;49.350;20.898;2023-04-24T14:08:28;6.90;;;3.40;;
36653;SDS011;22650;49.350;20.898;2023-04-24T14:11:02;4.63;;;3.50;;
36653;SDS011;22650;49.350;20.898;2023-04-24T14:13:36;5.20;;;3.78;;
36653;SDS011;22650;49.350;20.898;2023-04-24T14:16:10;4.45;;;3.05;;
36653;SDS011;22650;49.350;20.898;2023-04-24T14:18:44;8.02;;;2.85;;
36653;SDS011;22650;49.350;20.898;2023-04-24T14:21:19;5.53;;;3.78;;
36653;SDS011;22650;49.350;20.898;2023-04-24T14:23:53;6.28;;;4.00;;
36653;SDS011;22650;49.350;20.898;2023-04-24T14:26:28;6.18;;;3.70;;
36653;SDS011;22650;49.350;20.898;2023-04-24T14:29:02;6.13;;;4.43;;
36653;SDS011;22650;49.350;20.898;2023-04-24T14:31:45;6.63;;;5.03;;
36653;SDS011;22650;49.350;20.898;2023-04-24T14:34:19;7.38;;;5.25;;
36653;SDS011;22650;49.350;20.898;2023-04-24T14:36:54;7.00;;;3.63;;
36653;SDS011;22650;49.350;20.898;2023-04-24T14:39:27;6.90;;;4.43;;
36653;SDS011;22650;49.350;20.898;2023-04-24T14:42:01;7.60;;;4.90;;
36653;SDS011;22650;49.350;20.898;2023-04-24T14:44:35;16.10;;;5.40;;
36653;SDS011;22650;49.350;20.898;2023-04-24T14:47:08;6.43;;;4.35;;
36653;SDS011;22650;49.350;20.898;2023-04-24T14:49:42;6.43;;;4.80;;
36653;SDS011;22650;49.350;20.898;2023-04-24T14:52:20;11.30;;;4.65;;
36653;SDS011;22650;49.350;20.898;2023-04-24T14:54:54;6.88;;;5.00;;
36653;SDS011;22650;49.350;20.898;2023-04-24T14:57:27;8.50;;;5.45;;
36653;SDS011;22650;49.350;20.898;2023-04-24T15:00:01;6.80;;;4.97;;
36653;SDS011;22650;49.350;20.898;2023-04-24T15:02:37;9.50;;;5.90;;
36653;SDS011;22650;49.350;20.898;2023-04-24T15:05:13;9.50;;;6.38;;
36653;SDS011;22650;49.350;20.898;2023-04-24T15:07:49;14.35;;;8.32;;
36653;SDS011;22650;49.350;20.898;2023-04-24T15:10:23;14.55;;;10.05;;
36653;SDS011;22650;49.350;20.898;2023-04-24T15:12:57;11.18;;;6.82;;
36653;SDS011;22650;49.350;20.898;2023-04-24T15:15:30;9.63;;;6.47;;
36653;SDS011;22650;49.350;20.898;2023-04-24T15:18:04;16.00;;;9.10;;